sensor_id;sensor_type;location;lat;lon;timestamp;temperature;humidity
38436;DHT22;24220;48.168;14.024;2023-04-24T00:01:38;19.30;61.90
38436;DHT22;24220;48.168;14.024;2023-04-24T00:04:06;19.20;62.20
38436;DHT22;24220;48.168;14.024;2023-04-24T00:06:38;19.20;62.50
38436;DHT22;24220;48.168;14.024;2023-04-24T00:09:05;19.20;62.90
38436;DHT22;24220;48.168;14.024;2023-04-24T00:11:33;19.20;63.20
38436;DHT22;24220;48.168;14.024;2023-04-24T00:14:00;19.10;63.60
38436;DHT22;24220;48.168;14.024;2023-04-24T00:16:27;19.00;63.70
38436;DHT22;24220;48.168;14.024;2023-04-24T00:18:55;18.90;63.80
38436;DHT22;24220;48.168;14.024;2023-04-24T00:21:25;18.90;64.10
38436;DHT22;24220;48.168;14.024;2023-04-24T00:23:54;18.90;64.40
38436;DHT22;24220;48.168;14.024;2023-04-24T00:26:21;18.80;64.40
38436;DHT22;24220;48.168;14.024;2023-04-24T00:28:50;18.80;64.60
38436;DHT22;24220;48.168;14.024;2023-04-24T00:31:17;18.70;64.90
38436;DHT22;24220;48.168;14.024;2023-04-24T00:33:47;18.70;64.80
38436;DHT22;24220;48.168;14.024;2023-04-24T00:36:17;18.60;65.00
38436;DHT22;24220;48.168;14.024;2023-04-24T00:38:48;18.60;64.90
38436;DHT22;24220;48.168;14.024;2023-04-24T00:41:16;18.50;65.10
38436;DHT22;24220;48.168;14.024;2023-04-24T00:43:43;18.50;65.20
38436;DHT22;24220;48.168;14.024;2023-04-24T00:46:15;18.50;65.40
38436;DHT22;24220;48.168;14.024;2023-04-24T00:48:45;18.40;65.60
38436;DHT22;24220;48.168;14.024;2023-04-24T00:51:13;18.40;65.70
38436;DHT22;24220;48.168;14.024;2023-04-24T00:53:40;18.30;65.80
38436;DHT22;24220;48.168;14.024;2023-04-24T00:56:07;18.30;66.10
38436;DHT22;24220;48.168;14.024;2023-04-24T00:58:35;18.30;66.20
38436;DHT22;24220;48.168;14.024;2023-04-24T01:01:05;18.30;66.40
38436;DHT22;24220;48.168;14.024;2023-04-24T01:03:34;18.30;66.70
38436;DHT22;24220;48.168;14.024;2023-04-24T01:06:05;18.30;65.60
38436;DHT22;24220;48.168;14.024;2023-04-24T01:08:32;18.30;66.10
38436;DHT22;24220;48.168;14.024;2023-04-24T01:11:03;18.30;66.30
38436;DHT22;24220;48.168;14.024;2023-04-24T01:13:31;18.30;66.60
38436;DHT22;24220;48.168;14.024;2023-04-24T01:16:00;18.20;66.40
38436;DHT22;24220;48.168;14.024;2023-04-24T01:18:32;18.20;66.40
38436;DHT22;24220;48.168;14.024;2023-04-24T01:21:02;18.20;66.60
38436;DHT22;24220;48.168;14.024;2023-04-24T01:23:33;18.10;66.80
38436;DHT22;24220;48.168;14.024;2023-04-24T01:26:00;18.10;66.70
38436;DHT22;24220;48.168;14.024;2023-04-24T01:28:28;18.10;66.50
38436;DHT22;24220;48.168;14.024;2023-04-24T01:30:55;18.00;66.50
38436;DHT22;24220;48.168;14.024;2023-04-24T01:33:23;18.00;66.70
38436;DHT22;24220;48.168;14.024;2023-04-24T01:35:50;18.00;66.70
38436;DHT22;24220;48.168;14.024;2023-04-24T01:38:20;18.00;66.90
38436;DHT22;24220;48.168;14.024;2023-04-24T01:40:47;18.00;67.00
38436;DHT22;24220;48.168;14.024;2023-04-24T01:43:15;18.00;67.20
38436;DHT22;24220;48.168;14.024;2023-04-24T01:45:42;18.00;67.20
38436;DHT22;24220;48.168;14.024;2023-04-24T01:48:12;18.00;67.20
38436;DHT22;24220;48.168;14.024;2023-04-24T01:50:39;18.00;67.20
38436;DHT22;24220;48.168;14.024;2023-04-24T01:53:07;18.00;67.30
38436;DHT22;24220;48.168;14.024;2023-04-24T01:55:34;18.00;67.40
38436;DHT22;24220;48.168;14.024;2023-04-24T01:58:01;17.90;67.50
38436;DHT22;24220;48.168;14.024;2023-04-24T02:00:29;18.00;67.50
38436;DHT22;24220;48.168;14.024;2023-04-24T02:02:56;17.90;67.40
38436;DHT22;24220;48.168;14.024;2023-04-24T02:05:24;18.00;67.70
38436;DHT22;24220;48.168;14.024;2023-04-24T02:07:54;17.90;67.60
38436;DHT22;24220;48.168;14.024;2023-04-24T02:10:23;18.00;67.80
38436;DHT22;24220;48.168;14.024;2023-04-24T02:12:52;17.90;67.80
38436;DHT22;24220;48.168;14.024;2023-04-24T02:15:19;17.90;67.70
38436;DHT22;24220;48.168;14.024;2023-04-24T02:17:47;17.90;67.70
38436;DHT22;24220;48.168;14.024;2023-04-24T02:20:14;17.90;67.80
38436;DHT22;24220;48.168;14.024;2023-04-24T02:22:41;17.90;67.90
38436;DHT22;24220;48.168;14.024;2023-04-24T02:25:09;17.90;67.90
38436;DHT22;24220;48.168;14.024;2023-04-24T02:27:36;17.90;68.00
38436;DHT22;24220;48.168;14.024;2023-04-24T02:30:04;17.90;68.00
38436;DHT22;24220;48.168;14.024;2023-04-24T02:32:34;17.90;68.20
38436;DHT22;24220;48.168;14.024;2023-04-24T02:35:01;17.90;68.50
38436;DHT22;24220;48.168;14.024;2023-04-24T02:37:31;17.90;68.30
38436;DHT22;24220;48.168;14.024;2023-04-24T02:39:59;17.90;68.30
38436;DHT22;24220;48.168;14.024;2023-04-24T02:42:26;17.90;68.40
38436;DHT22;24220;48.168;14.024;2023-04-24T02:44:53;17.90;68.50
38436;DHT22;24220;48.168;14.024;2023-04-24T02:47:21;17.90;68.50
38436;DHT22;24220;48.168;14.024;2023-04-24T02:49:50;17.90;68.60
38436;DHT22;24220;48.168;14.024;2023-04-24T02:52:18;17.90;68.80
38436;DHT22;24220;48.168;14.024;2023-04-24T02:54:45;17.90;68.60
38436;DHT22;24220;48.168;14.024;2023-04-24T02:57:12;17.90;68.50
38436;DHT22;24220;48.168;14.024;2023-04-24T02:59:44;17.90;68.40
38436;DHT22;24220;48.168;14.024;2023-04-24T03:02:14;17.90;68.60
38436;DHT22;24220;48.168;14.024;2023-04-24T03:04:42;17.90;68.60
38436;DHT22;24220;48.168;14.024;2023-04-24T03:07:12;17.90;68.50
38436;DHT22;24220;48.168;14.024;2023-04-24T03:09:39;17.90;68.60
38436;DHT22;24220;48.168;14.024;2023-04-24T03:12:14;17.90;68.60
38436;DHT22;24220;48.168;14.024;2023-04-24T03:14:44;17.90;68.60
38436;DHT22;24220;48.168;14.024;2023-04-24T03:17:13;17.90;68.60
38436;DHT22;24220;48.168;14.024;2023-04-24T03:19:41;17.90;68.70
38436;DHT22;24220;48.168;14.024;2023-04-24T03:22:08;17.90;68.60
38436;DHT22;24220;48.168;14.024;2023-04-24T03:24:36;17.90;68.50
38436;DHT22;24220;48.168;14.024;2023-04-24T03:27:03;17.90;68.50
38436;DHT22;24220;48.168;14.024;2023-04-24T03:29:30;17.90;68.40
38436;DHT22;24220;48.168;14.024;2023-04-24T03:31:58;17.90;68.50
38436;DHT22;24220;48.168;14.024;2023-04-24T03:34:26;17.90;68.50
38436;DHT22;24220;48.168;14.024;2023-04-24T03:36:55;17.90;68.40
38436;DHT22;24220;48.168;14.024;2023-04-24T03:39:22;17.90;68.90
38436;DHT22;24220;48.168;14.024;2023-04-24T03:41:50;17.80;68.10
38436;DHT22;24220;48.168;14.024;2023-04-24T03:44:17;17.90;68.20
38436;DHT22;24220;48.168;14.024;2023-04-24T03:46:46;17.80;68.10
38436;DHT22;24220;48.168;14.024;2023-04-24T03:49:14;17.80;68.10
38436;DHT22;24220;48.168;14.024;2023-04-24T03:51:43;17.80;68.70
38436;DHT22;24220;48.168;14.024;2023-04-24T03:54:13;17.80;68.10
38436;DHT22;24220;48.168;14.024;2023-04-24T03:56:40;17.80;67.60
38436;DHT22;24220;48.168;14.024;2023-04-24T03:59:07;17.80;67.60
38436;DHT22;24220;48.168;14.024;2023-04-24T04:01:35;17.70;67.60
38436;DHT22;24220;48.168;14.024;2023-04-24T04:04:09;17.70;67.60
38436;DHT22;24220;48.168;14.024;2023-04-24T04:06:39;17.70;67.70
38436;DHT22;24220;48.168;14.024;2023-04-24T04:09:06;17.70;67.80
38436;DHT22;24220;48.168;14.024;2023-04-24T04:11:36;17.60;67.90
38436;DHT22;24220;48.168;14.024;2023-04-24T04:14:04;17.60;68.00
38436;DHT22;24220;48.168;14.024;2023-04-24T04:16:31;17.60;67.90
38436;DHT22;24220;48.168;14.024;2023-04-24T04:18:58;17.60;67.80
38436;DHT22;24220;48.168;14.024;2023-04-24T04:21:26;17.50;67.80
38436;DHT22;24220;48.168;14.024;2023-04-24T04:23:54;17.50;67.90
38436;DHT22;24220;48.168;14.024;2023-04-24T04:26:21;17.50;68.10
38436;DHT22;24220;48.168;14.024;2023-04-24T04:28:52;17.40;68.10
38436;DHT22;24220;48.168;14.024;2023-04-24T04:31:21;17.40;68.00
38436;DHT22;24220;48.168;14.024;2023-04-24T04:33:48;17.50;68.20
38436;DHT22;24220;48.168;14.024;2023-04-24T04:36:18;17.40;68.20
38436;DHT22;24220;48.168;14.024;2023-04-24T04:38:48;17.40;68.30
38436;DHT22;24220;48.168;14.024;2023-04-24T04:41:15;17.40;68.40
38436;DHT22;24220;48.168;14.024;2023-04-24T04:43:44;17.40;68.40
38436;DHT22;24220;48.168;14.024;2023-04-24T04:46:14;17.40;68.40
38436;DHT22;24220;48.168;14.024;2023-04-24T04:48:42;17.40;68.30
38436;DHT22;24220;48.168;14.024;2023-04-24T04:51:10;17.30;68.40
38436;DHT22;24220;48.168;14.024;2023-04-24T04:53:37;17.30;68.30
38436;DHT22;24220;48.168;14.024;2023-04-24T04:56:07;17.30;68.10
38436;DHT22;24220;48.168;14.024;2023-04-24T04:58:35;17.30;68.00
38436;DHT22;24220;48.168;14.024;2023-04-24T05:01:02;17.30;68.00
38436;DHT22;24220;48.168;14.024;2023-04-24T05:03:30;17.30;68.00
38436;DHT22;24220;48.168;14.024;2023-04-24T05:05:59;17.30;68.00
38436;DHT22;24220;48.168;14.024;2023-04-24T05:08:29;17.30;67.90
38436;DHT22;24220;48.168;14.024;2023-04-24T05:10:59;17.30;67.70
38436;DHT22;24220;48.168;14.024;2023-04-24T05:13:29;17.30;67.60
38436;DHT22;24220;48.168;14.024;2023-04-24T05:16:09;17.30;67.60
38436;DHT22;24220;48.168;14.024;2023-04-24T05:18:37;17.30;67.80
38436;DHT22;24220;48.168;14.024;2023-04-24T05:21:04;17.20;67.90
38436;DHT22;24220;48.168;14.024;2023-04-24T05:23:32;17.20;68.00
38436;DHT22;24220;48.168;14.024;2023-04-24T05:25:59;17.20;68.00
38436;DHT22;24220;48.168;14.024;2023-04-24T05:28:26;17.20;68.20
38436;DHT22;24220;48.168;14.024;2023-04-24T05:30:55;17.20;68.50
38436;DHT22;24220;48.168;14.024;2023-04-24T05:33:23;17.10;68.60
38436;DHT22;24220;48.168;14.024;2023-04-24T05:35:50;17.10;68.80
38436;DHT22;24220;48.168;14.024;2023-04-24T05:38:18;17.10;68.80
38436;DHT22;24220;48.168;14.024;2023-04-24T05:40:49;17.10;69.00
38436;DHT22;24220;48.168;14.024;2023-04-24T05:43:16;17.10;69.10
38436;DHT22;24220;48.168;14.024;2023-04-24T05:45:43;17.10;69.00
38436;DHT22;24220;48.168;14.024;2023-04-24T05:48:13;17.10;68.90
38436;DHT22;24220;48.168;14.024;2023-04-24T05:50:43;17.10;69.10
38436;DHT22;24220;48.168;14.024;2023-04-24T05:53:12;17.10;69.00
38436;DHT22;24220;48.168;14.024;2023-04-24T05:55:40;17.10;69.20
38436;DHT22;24220;48.168;14.024;2023-04-24T05:58:07;17.10;69.40
38436;DHT22;24220;48.168;14.024;2023-04-24T06:00:37;17.00;69.40
38436;DHT22;24220;48.168;14.024;2023-04-24T06:03:06;17.00;69.30
38436;DHT22;24220;48.168;14.024;2023-04-24T06:05:37;17.00;69.30
38436;DHT22;24220;48.168;14.024;2023-04-24T06:08:04;17.00;69.30
38436;DHT22;24220;48.168;14.024;2023-04-24T06:10:34;17.00;69.40
38436;DHT22;24220;48.168;14.024;2023-04-24T06:13:03;17.00;69.60
38436;DHT22;24220;48.168;14.024;2023-04-24T06:15:31;17.00;69.60
38436;DHT22;24220;48.168;14.024;2023-04-24T06:17:59;17.00;69.60
38436;DHT22;24220;48.168;14.024;2023-04-24T06:20:29;17.00;69.70
38436;DHT22;24220;48.168;14.024;2023-04-24T06:22:56;17.00;69.80
38436;DHT22;24220;48.168;14.024;2023-04-24T06:25:26;17.00;69.70
38436;DHT22;24220;48.168;14.024;2023-04-24T06:27:54;17.00;69.90
38436;DHT22;24220;48.168;14.024;2023-04-24T06:30:22;17.00;69.80
38436;DHT22;24220;48.168;14.024;2023-04-24T06:32:50;17.00;69.80
38436;DHT22;24220;48.168;14.024;2023-04-24T06:35:18;17.00;69.80
38436;DHT22;24220;48.168;14.024;2023-04-24T06:37:45;17.00;69.90
38436;DHT22;24220;48.168;14.024;2023-04-24T06:40:13;17.00;70.00
38436;DHT22;24220;48.168;14.024;2023-04-24T06:42:40;16.90;70.00
38436;DHT22;24220;48.168;14.024;2023-04-24T06:45:07;16.90;70.00
38436;DHT22;24220;48.168;14.024;2023-04-24T06:47:35;16.90;70.60
38436;DHT22;24220;48.168;14.024;2023-04-24T06:50:05;16.90;70.00
38436;DHT22;24220;48.168;14.024;2023-04-24T06:52:33;16.90;70.10
38436;DHT22;24220;48.168;14.024;2023-04-24T06:55:01;16.90;70.20
38436;DHT22;24220;48.168;14.024;2023-04-24T06:57:34;16.90;70.40
38436;DHT22;24220;48.168;14.024;2023-04-24T07:00:01;16.90;70.40
38436;DHT22;24220;48.168;14.024;2023-04-24T07:02:28;16.90;70.60
38436;DHT22;24220;48.168;14.024;2023-04-24T07:04:58;16.90;70.70
38436;DHT22;24220;48.168;14.024;2023-04-24T07:07:25;17.00;70.90
38436;DHT22;24220;48.168;14.024;2023-04-24T07:09:53;17.00;70.70
38436;DHT22;24220;48.168;14.024;2023-04-24T07:12:21;17.00;70.60
38436;DHT22;24220;48.168;14.024;2023-04-24T07:14:50;17.00;70.60
38436;DHT22;24220;48.168;14.024;2023-04-24T07:17:17;17.00;70.60
38436;DHT22;24220;48.168;14.024;2023-04-24T07:19:47;17.00;70.70
38436;DHT22;24220;48.168;14.024;2023-04-24T07:22:17;17.00;70.60
38436;DHT22;24220;48.168;14.024;2023-04-24T07:24:44;17.10;70.70
38436;DHT22;24220;48.168;14.024;2023-04-24T07:27:12;17.00;70.50
38436;DHT22;24220;48.168;14.024;2023-04-24T07:29:42;17.00;70.60
38436;DHT22;24220;48.168;14.024;2023-04-24T07:32:13;17.00;70.70
38436;DHT22;24220;48.168;14.024;2023-04-24T07:34:40;17.00;70.60
38436;DHT22;24220;48.168;14.024;2023-04-24T07:37:07;17.10;70.60
38436;DHT22;24220;48.168;14.024;2023-04-24T07:39:37;17.10;70.60
38436;DHT22;24220;48.168;14.024;2023-04-24T07:42:05;17.10;70.60
38436;DHT22;24220;48.168;14.024;2023-04-24T07:44:32;17.10;70.60
38436;DHT22;24220;48.168;14.024;2023-04-24T07:47:02;17.10;70.70
38436;DHT22;24220;48.168;14.024;2023-04-24T07:49:29;17.10;70.80
38436;DHT22;24220;48.168;14.024;2023-04-24T07:51:57;17.10;71.20
38436;DHT22;24220;48.168;14.024;2023-04-24T07:54:24;17.00;71.70
38436;DHT22;24220;48.168;14.024;2023-04-24T07:56:51;17.00;71.10
38436;DHT22;24220;48.168;14.024;2023-04-24T07:59:19;17.10;71.50
38436;DHT22;24220;48.168;14.024;2023-04-24T08:01:46;17.10;71.10
38436;DHT22;24220;48.168;14.024;2023-04-24T08:04:16;17.10;71.20
38436;DHT22;24220;48.168;14.024;2023-04-24T08:06:45;17.10;70.80
38436;DHT22;24220;48.168;14.024;2023-04-24T08:09:12;17.10;70.90
38436;DHT22;24220;48.168;14.024;2023-04-24T08:11:42;17.10;71.00
38436;DHT22;24220;48.168;14.024;2023-04-24T08:14:10;17.10;71.10
38436;DHT22;24220;48.168;14.024;2023-04-24T08:16:39;17.10;71.20
38436;DHT22;24220;48.168;14.024;2023-04-24T08:19:09;17.20;71.20
38436;DHT22;24220;48.168;14.024;2023-04-24T08:21:39;17.10;71.30
38436;DHT22;24220;48.168;14.024;2023-04-24T08:24:06;17.20;71.50
38436;DHT22;24220;48.168;14.024;2023-04-24T08:26:35;17.20;71.50
38436;DHT22;24220;48.168;14.024;2023-04-24T08:29:02;17.20;71.50
38436;DHT22;24220;48.168;14.024;2023-04-24T08:31:30;17.30;71.70
38436;DHT22;24220;48.168;14.024;2023-04-24T08:33:59;17.30;71.60
38436;DHT22;24220;48.168;14.024;2023-04-24T08:36:27;17.30;71.50
38436;DHT22;24220;48.168;14.024;2023-04-24T08:39:12;17.30;71.30
38436;DHT22;24220;48.168;14.024;2023-04-24T08:41:41;17.40;71.20
38436;DHT22;24220;48.168;14.024;2023-04-24T08:44:10;17.40;71.20
38436;DHT22;24220;48.168;14.024;2023-04-24T08:46:39;17.40;71.30
38436;DHT22;24220;48.168;14.024;2023-04-24T08:49:07;17.40;72.20
38436;DHT22;24220;48.168;14.024;2023-04-24T08:51:36;17.40;71.70
38436;DHT22;24220;48.168;14.024;2023-04-24T08:54:04;17.50;71.80
38436;DHT22;24220;48.168;14.024;2023-04-24T08:56:36;17.50;71.60
38436;DHT22;24220;48.168;14.024;2023-04-24T08:59:10;17.50;71.80
38436;DHT22;24220;48.168;14.024;2023-04-24T09:01:38;17.50;72.50
38436;DHT22;24220;48.168;14.024;2023-04-24T09:04:09;17.60;72.00
38436;DHT22;24220;48.168;14.024;2023-04-24T09:06:45;17.60;71.70
38436;DHT22;24220;48.168;14.024;2023-04-24T09:09:12;17.60;71.50
38436;DHT22;24220;48.168;14.024;2023-04-24T09:11:40;17.70;71.60
38436;DHT22;24220;48.168;14.024;2023-04-24T09:14:09;17.70;71.50
38436;DHT22;24220;48.168;14.024;2023-04-24T09:16:37;17.70;71.50
38436;DHT22;24220;48.168;14.024;2023-04-24T09:19:07;17.70;71.30
38436;DHT22;24220;48.168;14.024;2023-04-24T09:21:35;17.70;72.00
38436;DHT22;24220;48.168;14.024;2023-04-24T09:24:14;17.70;71.50
38436;DHT22;24220;48.168;14.024;2023-04-24T09:26:44;17.60;70.50
38436;DHT22;24220;48.168;14.024;2023-04-24T09:29:16;17.70;70.70
38436;DHT22;24220;48.168;14.024;2023-04-24T09:31:45;17.60;70.80
38436;DHT22;24220;48.168;14.024;2023-04-24T09:34:18;17.70;70.90
38436;DHT22;24220;48.168;14.024;2023-04-24T09:36:50;17.70;70.90
38436;DHT22;24220;48.168;14.024;2023-04-24T09:39:18;17.70;71.00
38436;DHT22;24220;48.168;14.024;2023-04-24T09:41:50;17.70;70.50
38436;DHT22;24220;48.168;14.024;2023-04-24T09:44:22;17.70;70.00
38436;DHT22;24220;48.168;14.024;2023-04-24T09:46:59;17.70;70.30
38436;DHT22;24220;48.168;14.024;2023-04-24T09:49:30;17.70;70.60
38436;DHT22;24220;48.168;14.024;2023-04-24T09:52:04;17.60;70.60
38436;DHT22;24220;48.168;14.024;2023-04-24T09:54:32;17.70;70.50
38436;DHT22;24220;48.168;14.024;2023-04-24T09:57:04;17.70;71.10
38436;DHT22;24220;48.168;14.024;2023-04-24T09:59:32;17.70;71.00
38436;DHT22;24220;48.168;14.024;2023-04-24T10:02:19;17.80;71.10
38436;DHT22;24220;48.168;14.024;2023-04-24T10:04:56;17.80;70.70
38436;DHT22;24220;48.168;14.024;2023-04-24T10:07:26;17.80;70.50
38436;DHT22;24220;48.168;14.024;2023-04-24T10:09:54;17.90;71.40
38436;DHT22;24220;48.168;14.024;2023-04-24T10:12:21;17.90;70.90
38436;DHT22;24220;48.168;14.024;2023-04-24T10:14:53;17.90;70.40
38436;DHT22;24220;48.168;14.024;2023-04-24T10:17:25;17.90;70.50
38436;DHT22;24220;48.168;14.024;2023-04-24T10:19:52;17.90;70.30
38436;DHT22;24220;48.168;14.024;2023-04-24T10:22:21;17.90;70.10
38436;DHT22;24220;48.168;14.024;2023-04-24T10:24:52;18.00;70.30
38436;DHT22;24220;48.168;14.024;2023-04-24T10:27:20;18.00;70.20
38436;DHT22;24220;48.168;14.024;2023-04-24T10:29:50;18.00;70.00
38436;DHT22;24220;48.168;14.024;2023-04-24T10:32:18;18.00;69.90
38436;DHT22;24220;48.168;14.024;2023-04-24T10:34:45;18.00;70.40
38436;DHT22;24220;48.168;14.024;2023-04-24T10:37:13;18.10;70.70
38436;DHT22;24220;48.168;14.024;2023-04-24T10:39:49;18.20;70.70
38436;DHT22;24220;48.168;14.024;2023-04-24T10:42:20;18.20;69.50
38436;DHT22;24220;48.168;14.024;2023-04-24T10:44:49;18.30;69.40
38436;DHT22;24220;48.168;14.024;2023-04-24T10:47:16;18.40;68.40
38436;DHT22;24220;48.168;14.024;2023-04-24T10:49:46;18.40;68.80
38436;DHT22;24220;48.168;14.024;2023-04-24T10:52:17;18.40;68.20
38436;DHT22;24220;48.168;14.024;2023-04-24T10:54:46;18.50;68.20
38436;DHT22;24220;48.168;14.024;2023-04-24T11:02:42;18.70;67.80
38436;DHT22;24220;48.168;14.024;2023-04-24T11:05:16;18.80;66.70
38436;DHT22;24220;48.168;14.024;2023-04-24T11:08:12;18.80;67.10
38436;DHT22;24220;48.168;14.024;2023-04-24T11:11:08;18.90;67.40
38436;DHT22;24220;48.168;14.024;2023-04-24T11:19:17;19.10;67.60
38436;DHT22;24220;48.168;14.024;2023-04-24T11:21:48;19.20;68.70
38436;DHT22;24220;48.168;14.024;2023-04-24T11:27:15;19.50;66.60
38436;DHT22;24220;48.168;14.024;2023-04-24T11:29:47;19.60;66.20
38436;DHT22;24220;48.168;14.024;2023-04-24T11:34:57;19.80;64.40
38436;DHT22;24220;48.168;14.024;2023-04-24T11:37:27;19.90;64.00
38436;DHT22;24220;48.168;14.024;2023-04-24T11:39:57;20.00;63.70
38436;DHT22;24220;48.168;14.024;2023-04-24T11:42:25;20.10;63.10
38436;DHT22;24220;48.168;14.024;2023-04-24T11:44:54;20.10;64.00
38436;DHT22;24220;48.168;14.024;2023-04-24T11:47:32;20.20;62.90
38436;DHT22;24220;48.168;14.024;2023-04-24T11:50:04;20.30;62.60
38436;DHT22;24220;48.168;14.024;2023-04-24T11:52:36;20.30;61.50
38436;DHT22;24220;48.168;14.024;2023-04-24T11:55:06;20.30;61.50
38436;DHT22;24220;48.168;14.024;2023-04-24T11:57:33;20.30;61.40
38436;DHT22;24220;48.168;14.024;2023-04-24T12:00:04;20.20;60.90
38436;DHT22;24220;48.168;14.024;2023-04-24T12:02:35;20.20;62.40
38436;DHT22;24220;48.168;14.024;2023-04-24T12:05:13;19.90;76.40
38436;DHT22;24220;48.168;14.024;2023-04-24T12:07:46;19.60;78.50
38436;DHT22;24220;48.168;14.024;2023-04-24T12:10:13;19.20;79.00
38436;DHT22;24220;48.168;14.024;2023-04-24T12:12:45;19.00;78.70
38436;DHT22;24220;48.168;14.024;2023-04-24T12:15:18;18.80;77.20
38436;DHT22;24220;48.168;14.024;2023-04-24T12:17:46;18.50;78.10
38436;DHT22;24220;48.168;14.024;2023-04-24T12:20:15;18.30;77.20
38436;DHT22;24220;48.168;14.024;2023-04-24T12:22:48;18.20;74.30
38436;DHT22;24220;48.168;14.024;2023-04-24T12:25:17;18.00;74.50
38436;DHT22;24220;48.168;14.024;2023-04-24T12:27:46;17.90;75.10
38436;DHT22;24220;48.168;14.024;2023-04-24T12:30:25;17.70;75.30
38436;DHT22;24220;48.168;14.024;2023-04-24T12:32:53;17.60;75.90
38436;DHT22;24220;48.168;14.024;2023-04-24T12:35:23;17.40;76.60
38436;DHT22;24220;48.168;14.024;2023-04-24T12:37:51;17.30;77.20
38436;DHT22;24220;48.168;14.024;2023-04-24T12:40:20;17.20;77.30
38436;DHT22;24220;48.168;14.024;2023-04-24T12:42:51;17.20;77.70
38436;DHT22;24220;48.168;14.024;2023-04-24T12:45:19;17.10;77.80
38436;DHT22;24220;48.168;14.024;2023-04-24T12:47:48;17.00;78.10
38436;DHT22;24220;48.168;14.024;2023-04-24T12:50:15;17.00;78.70
38436;DHT22;24220;48.168;14.024;2023-04-24T12:52:44;17.00;79.10
38436;DHT22;24220;48.168;14.024;2023-04-24T12:55:12;17.00;79.00
38436;DHT22;24220;48.168;14.024;2023-04-24T12:57:40;17.00;79.30
38436;DHT22;24220;48.168;14.024;2023-04-24T13:00:08;17.00;79.80
38436;DHT22;24220;48.168;14.024;2023-04-24T13:02:35;17.00;79.50
38436;DHT22;24220;48.168;14.024;2023-04-24T13:05:04;17.00;79.60
38436;DHT22;24220;48.168;14.024;2023-04-24T13:07:34;17.10;80.10
38436;DHT22;24220;48.168;14.024;2023-04-24T13:10:01;17.20;80.40
38436;DHT22;24220;48.168;14.024;2023-04-24T13:12:28;17.20;80.10
38436;DHT22;24220;48.168;14.024;2023-04-24T13:14:56;17.30;80.30
38436;DHT22;24220;48.168;14.024;2023-04-24T13:17:28;17.40;79.60
38436;DHT22;24220;48.168;14.024;2023-04-24T13:19:55;17.50;79.20
38436;DHT22;24220;48.168;14.024;2023-04-24T13:22:23;17.60;79.00
38436;DHT22;24220;48.168;14.024;2023-04-24T13:24:52;17.70;79.20
38436;DHT22;24220;48.168;14.024;2023-04-24T13:27:20;17.70;78.10
38436;DHT22;24220;48.168;14.024;2023-04-24T13:29:47;17.80;77.10
38436;DHT22;24220;48.168;14.024;2023-04-24T13:32:14;17.90;76.80
38436;DHT22;24220;48.168;14.024;2023-04-24T13:34:42;17.90;76.40
38436;DHT22;24220;48.168;14.024;2023-04-24T13:37:09;18.00;75.80
38436;DHT22;24220;48.168;14.024;2023-04-24T13:39:40;18.10;75.50
38436;DHT22;24220;48.168;14.024;2023-04-24T13:42:08;18.10;75.20
38436;DHT22;24220;48.168;14.024;2023-04-24T13:44:36;18.10;74.10
38436;DHT22;24220;48.168;14.024;2023-04-24T13:47:03;18.20;73.80
38436;DHT22;24220;48.168;14.024;2023-04-24T13:49:31;18.20;73.60
38436;DHT22;24220;48.168;14.024;2023-04-24T13:52:01;18.20;73.50
38436;DHT22;24220;48.168;14.024;2023-04-24T13:54:29;18.20;73.90
38436;DHT22;24220;48.168;14.024;2023-04-24T13:57:01;18.20;74.10
38436;DHT22;24220;48.168;14.024;2023-04-24T13:59:29;18.20;74.60
38436;DHT22;24220;48.168;14.024;2023-04-24T14:02:00;18.20;74.20
38436;DHT22;24220;48.168;14.024;2023-04-24T14:04:27;18.20;73.90
38436;DHT22;24220;48.168;14.024;2023-04-24T14:06:55;18.20;73.90
38436;DHT22;24220;48.168;14.024;2023-04-24T14:09:22;18.30;73.40
38436;DHT22;24220;48.168;14.024;2023-04-24T14:11:51;18.30;73.10
38436;DHT22;24220;48.168;14.024;2023-04-24T14:14:18;18.30;72.70
38436;DHT22;24220;48.168;14.024;2023-04-24T14:16:46;18.30;72.60
38436;DHT22;24220;48.168;14.024;2023-04-24T14:19:13;18.30;72.10
38436;DHT22;24220;48.168;14.024;2023-04-24T14:21:40;18.30;71.60
38436;DHT22;24220;48.168;14.024;2023-04-24T14:24:08;18.30;71.50
38436;DHT22;24220;48.168;14.024;2023-04-24T14:26:36;18.30;71.20
38436;DHT22;24220;48.168;14.024;2023-04-24T14:29:03;18.30;71.50
38436;DHT22;24220;48.168;14.024;2023-04-24T14:31:41;18.30;71.70
38436;DHT22;24220;48.168;14.024;2023-04-24T14:34:12;18.30;71.10
38436;DHT22;24220;48.168;14.024;2023-04-24T14:36:40;18.30;70.80
38436;DHT22;24220;48.168;14.024;2023-04-24T14:39:07;18.20;70.00
38436;DHT22;24220;48.168;14.024;2023-04-24T14:41:37;18.10;69.60
38436;DHT22;24220;48.168;14.024;2023-04-24T14:44:08;18.10;69.60
38436;DHT22;24220;48.168;14.024;2023-04-24T14:46:38;18.10;69.40
38436;DHT22;24220;48.168;14.024;2023-04-24T14:49:08;18.00;68.20
38436;DHT22;24220;48.168;14.024;2023-04-24T14:51:41;18.00;68.30
38436;DHT22;24220;48.168;14.024;2023-04-24T14:54:09;18.00;68.10
38436;DHT22;24220;48.168;14.024;2023-04-24T14:56:37;17.90;68.00
38436;DHT22;24220;48.168;14.024;2023-04-24T14:59:06;17.90;67.90
38436;DHT22;24220;48.168;14.024;2023-04-24T15:01:34;17.90;68.70
38436;DHT22;24220;48.168;14.024;2023-04-24T15:04:02;17.80;68.60
38436;DHT22;24220;48.168;14.024;2023-04-24T15:06:30;17.90;69.00
38436;DHT22;24220;48.168;14.024;2023-04-24T15:08:58;17.90;68.80
38436;DHT22;24220;48.168;14.024;2023-04-24T15:11:26;17.90;69.10
38436;DHT22;24220;48.168;14.024;2023-04-24T15:13:54;17.80;69.00
38436;DHT22;24220;48.168;14.024;2023-04-24T15:16:23;17.90;68.90
38436;DHT22;24220;48.168;14.024;2023-04-24T15:18:50;17.90;69.10
38436;DHT22;24220;48.168;14.024;2023-04-24T15:21:17;17.90;69.00
38436;DHT22;24220;48.168;14.024;2023-04-24T15:23:50;17.90;68.60
38436;DHT22;24220;48.168;14.024;2023-04-24T15:26:20;17.90;67.90
38436;DHT22;24220;48.168;14.024;2023-04-24T15:28:47;17.90;67.80
38436;DHT22;24220;48.168;14.024;2023-04-24T15:31:14;17.90;67.90
38436;DHT22;24220;48.168;14.024;2023-04-24T15:33:42;18.00;68.80
38436;DHT22;24220;48.168;14.024;2023-04-24T15:36:10;18.00;68.20
38436;DHT22;24220;48.168;14.024;2023-04-24T15:38:39;18.00;67.70
38436;DHT22;24220;48.168;14.024;2023-04-24T15:41:07;18.00;67.20
38436;DHT22;24220;48.168;14.024;2023-04-24T15:43:34;18.00;65.90